sensor_id;sensor_type;location;lat;lon;timestamp;temperature;humidity
66213;SHT31;53015;50.046;8.238;2023-09-19T00:00:44;17.81;95.42
66213;SHT31;53015;50.046;8.238;2023-09-19T00:03:11;17.74;95.74
66213;SHT31;53015;50.046;8.238;2023-09-19T00:05:38;17.67;95.80
66213;SHT31;53015;50.046;8.238;2023-09-19T00:08:04;17.65;95.99
66213;SHT31;53015;50.046;8.238;2023-09-19T00:10:30;17.57;96.37
66213;SHT31;53015;50.046;8.238;2023-09-19T00:12:57;17.49;96.33
66213;SHT31;53015;50.046;8.238;2023-09-19T00:15:23;17.53;96.22
66213;SHT31;53015;50.046;8.238;2023-09-19T00:17:48;17.62;95.87
66213;SHT31;53015;50.046;8.238;2023-09-19T00:20:15;17.62;95.86
66213;SHT31;53015;50.046;8.238;2023-09-19T00:22:41;17.51;96.06
66213;SHT31;53015;50.046;8.238;2023-09-19T00:25:07;17.56;95.67
66213;SHT31;53015;50.046;8.238;2023-09-19T00:27:32;17.43;95.95
66213;SHT31;53015;50.046;8.238;2023-09-19T00:29:58;17.33;96.19
66213;SHT31;53015;50.046;8.238;2023-09-19T00:32:23;17.35;96.30
66213;SHT31;53015;50.046;8.238;2023-09-19T00:34:49;17.32;96.44
66213;SHT31;53015;50.046;8.238;2023-09-19T00:37:15;17.39;96.08
66213;SHT31;53015;50.046;8.238;2023-09-19T00:39:41;17.39;96.07
66213;SHT31;53015;50.046;8.238;2023-09-19T00:42:06;17.40;95.92
66213;SHT31;53015;50.046;8.238;2023-09-19T00:44:32;17.40;96.03
66213;SHT31;53015;50.046;8.238;2023-09-19T00:46:57;17.40;96.17
66213;SHT31;53015;50.046;8.238;2023-09-19T00:49:23;17.46;95.70
66213;SHT31;53015;50.046;8.238;2023-09-19T00:51:48;17.39;95.81
66213;SHT31;53015;50.046;8.238;2023-09-19T00:54:16;17.51;95.72
66213;SHT31;53015;50.046;8.238;2023-09-19T00:56:43;17.63;95.48
66213;SHT31;53015;50.046;8.238;2023-09-19T00:59:09;17.56;95.36
66213;SHT31;53015;50.046;8.238;2023-09-19T01:01:35;17.59;95.51
66213;SHT31;53015;50.046;8.238;2023-09-19T01:04:00;17.51;95.34
66213;SHT31;53015;50.046;8.238;2023-09-19T01:06:26;17.49;95.54
66213;SHT31;53015;50.046;8.238;2023-09-19T01:08:51;17.45;95.69
66213;SHT31;53015;50.046;8.238;2023-09-19T01:11:22;17.35;95.70
66213;SHT31;53015;50.046;8.238;2023-09-19T01:13:56;17.16;96.08
66213;SHT31;53015;50.046;8.238;2023-09-19T01:16:32;17.14;96.59
66213;SHT31;53015;50.046;8.238;2023-09-19T01:19:05;17.22;96.60
66213;SHT31;53015;50.046;8.238;2023-09-19T01:21:41;17.23;96.24
66213;SHT31;53015;50.046;8.238;2023-09-19T01:24:44;17.33;95.98
66213;SHT31;53015;50.046;8.238;2023-09-19T01:27:29;17.40;95.35
66213;SHT31;53015;50.046;8.238;2023-09-19T01:30:09;17.46;95.46
66213;SHT31;53015;50.046;8.238;2023-09-19T01:32:36;17.49;95.37
66213;SHT31;53015;50.046;8.238;2023-09-19T01:35:02;17.36;95.57
66213;SHT31;53015;50.046;8.238;2023-09-19T01:37:28;17.42;95.52
66213;SHT31;53015;50.046;8.238;2023-09-19T01:39:56;17.43;95.66
66213;SHT31;53015;50.046;8.238;2023-09-19T01:42:31;17.47;95.42
66213;SHT31;53015;50.046;8.238;2023-09-19T01:45:05;17.51;95.44
66213;SHT31;53015;50.046;8.238;2023-09-19T01:47:37;17.54;95.33
66213;SHT31;53015;50.046;8.238;2023-09-19T01:50:12;17.43;95.73
66213;SHT31;53015;50.046;8.238;2023-09-19T01:52:43;17.49;95.53
66213;SHT31;53015;50.046;8.238;2023-09-19T01:55:12;17.38;95.70
66213;SHT31;53015;50.046;8.238;2023-09-19T01:57:43;17.46;95.79
66213;SHT31;53015;50.046;8.238;2023-09-19T02:00:12;17.51;95.88
66213;SHT31;53015;50.046;8.238;2023-09-19T02:02:40;17.51;95.52
66213;SHT31;53015;50.046;8.238;2023-09-19T02:05:07;17.50;95.57
66213;SHT31;53015;50.046;8.238;2023-09-19T02:07:33;17.42;95.90
66213;SHT31;53015;50.046;8.238;2023-09-19T02:09:59;17.46;95.72
66213;SHT31;53015;50.046;8.238;2023-09-19T02:12:25;17.43;95.70
66213;SHT31;53015;50.046;8.238;2023-09-19T02:14:50;17.38;95.96
66213;SHT31;53015;50.046;8.238;2023-09-19T02:17:15;17.30;96.03
66213;SHT31;53015;50.046;8.238;2023-09-19T02:19:42;17.33;96.36
66213;SHT31;53015;50.046;8.238;2023-09-19T02:22:08;17.35;95.95
66213;SHT31;53015;50.046;8.238;2023-09-19T02:24:33;17.38;96.02
66213;SHT31;53015;50.046;8.238;2023-09-19T02:26:59;17.42;95.81
66213;SHT31;53015;50.046;8.238;2023-09-19T02:29:24;17.39;95.73
66213;SHT31;53015;50.046;8.238;2023-09-19T02:31:50;17.47;95.48
66213;SHT31;53015;50.046;8.238;2023-09-19T02:34:15;17.49;95.15
66213;SHT31;53015;50.046;8.238;2023-09-19T02:36:42;17.47;95.47
66213;SHT31;53015;50.046;8.238;2023-09-19T02:39:08;17.45;95.24
66213;SHT31;53015;50.046;8.238;2023-09-19T02:41:33;17.49;95.02
66213;SHT31;53015;50.046;8.238;2023-09-19T02:43:59;17.16;95.99
66213;SHT31;53015;50.046;8.238;2023-09-19T02:46:24;17.10;95.95
66213;SHT31;53015;50.046;8.238;2023-09-19T02:48:50;17.23;95.76
66213;SHT31;53015;50.046;8.238;2023-09-19T02:51:15;17.23;95.61
66213;SHT31;53015;50.046;8.238;2023-09-19T02:53:42;17.12;95.26
66213;SHT31;53015;50.046;8.238;2023-09-19T02:56:08;17.11;95.13
66213;SHT31;53015;50.046;8.238;2023-09-19T02:58:33;17.08;95.27
66213;SHT31;53015;50.046;8.238;2023-09-19T03:00:59;16.84;95.15
66213;SHT31;53015;50.046;8.238;2023-09-19T03:03:24;16.74;95.74
66213;SHT31;53015;50.046;8.238;2023-09-19T03:05:50;16.77;95.80
66213;SHT31;53015;50.046;8.238;2023-09-19T03:08:15;16.73;95.45
66213;SHT31;53015;50.046;8.238;2023-09-19T03:10:42;16.74;95.71
66213;SHT31;53015;50.046;8.238;2023-09-19T03:13:08;16.67;96.00
66213;SHT31;53015;50.046;8.238;2023-09-19T03:15:33;16.63;96.07
66213;SHT31;53015;50.046;8.238;2023-09-19T03:17:59;16.56;95.93
66213;SHT31;53015;50.046;8.238;2023-09-19T03:20:24;16.57;96.07
66213;SHT31;53015;50.046;8.238;2023-09-19T03:22:50;16.53;96.03
66213;SHT31;53015;50.046;8.238;2023-09-19T03:25:16;16.42;96.22
66213;SHT31;53015;50.046;8.238;2023-09-19T03:27:43;16.45;95.90
66213;SHT31;53015;50.046;8.238;2023-09-19T03:30:08;16.47;95.75
66213;SHT31;53015;50.046;8.238;2023-09-19T03:32:34;16.49;95.56
66213;SHT31;53015;50.046;8.238;2023-09-19T03:35:00;16.37;95.28
66213;SHT31;53015;50.046;8.238;2023-09-19T03:37:26;16.23;95.87
66213;SHT31;53015;50.046;8.238;2023-09-19T03:39:51;16.26;95.73
66213;SHT31;53015;50.046;8.238;2023-09-19T03:42:17;16.19;95.42
66213;SHT31;53015;50.046;8.238;2023-09-19T03:44:43;16.26;95.51
66213;SHT31;53015;50.046;8.238;2023-09-19T03:47:09;16.26;95.40
66213;SHT31;53015;50.046;8.238;2023-09-19T03:49:34;16.20;95.43
66213;SHT31;53015;50.046;8.238;2023-09-19T03:52:00;16.18;95.19
66213;SHT31;53015;50.046;8.238;2023-09-19T03:54:25;16.16;94.94
66213;SHT31;53015;50.046;8.238;2023-09-19T03:56:51;16.16;94.88
66213;SHT31;53015;50.046;8.238;2023-09-19T03:59:16;16.10;94.92
66213;SHT31;53015;50.046;8.238;2023-09-19T04:01:43;16.04;94.70
66213;SHT31;53015;50.046;8.238;2023-09-19T04:04:09;15.94;95.25
66213;SHT31;53015;50.046;8.238;2023-09-19T04:06:34;16.02;95.01
66213;SHT31;53015;50.046;8.238;2023-09-19T04:09:00;16.06;94.65
66213;SHT31;53015;50.046;8.238;2023-09-19T04:11:25;16.12;94.29
66213;SHT31;53015;50.046;8.238;2023-09-19T04:13:51;16.12;94.21
66213;SHT31;53015;50.046;8.238;2023-09-19T04:16:16;16.05;94.20
66213;SHT31;53015;50.046;8.238;2023-09-19T04:18:43;15.97;94.89
66213;SHT31;53015;50.046;8.238;2023-09-19T04:21:08;15.92;94.53
66213;SHT31;53015;50.046;8.238;2023-09-19T04:23:34;15.92;94.05
66213;SHT31;53015;50.046;8.238;2023-09-19T04:26:00;15.85;94.36
66213;SHT31;53015;50.046;8.238;2023-09-19T04:28:25;15.82;94.49
66213;SHT31;53015;50.046;8.238;2023-09-19T04:30:51;15.82;95.10
66213;SHT31;53015;50.046;8.238;2023-09-19T04:33:16;15.82;95.16
66213;SHT31;53015;50.046;8.238;2023-09-19T04:35:43;15.85;94.85
66213;SHT31;53015;50.046;8.238;2023-09-19T04:38:08;15.90;95.02
66213;SHT31;53015;50.046;8.238;2023-09-19T04:40:34;15.91;94.97
66213;SHT31;53015;50.046;8.238;2023-09-19T04:43:00;15.97;94.54
66213;SHT31;53015;50.046;8.238;2023-09-19T04:45:25;15.99;94.51
66213;SHT31;53015;50.046;8.238;2023-09-19T04:47:51;15.97;94.70
66213;SHT31;53015;50.046;8.238;2023-09-19T04:50:17;15.97;94.36
66213;SHT31;53015;50.046;8.238;2023-09-19T04:52:45;15.97;94.49
66213;SHT31;53015;50.046;8.238;2023-09-19T04:55:11;15.85;94.69
66213;SHT31;53015;50.046;8.238;2023-09-19T04:57:36;15.88;94.80
66213;SHT31;53015;50.046;8.238;2023-09-19T05:00:02;15.91;94.78
66213;SHT31;53015;50.046;8.238;2023-09-19T05:02:29;15.77;94.61
66213;SHT31;53015;50.046;8.238;2023-09-19T05:04:54;15.77;94.76
66213;SHT31;53015;50.046;8.238;2023-09-19T05:07:20;15.75;95.13
66213;SHT31;53015;50.046;8.238;2023-09-19T05:09:46;15.75;94.86
66213;SHT31;53015;50.046;8.238;2023-09-19T05:12:12;15.70;94.99
66213;SHT31;53015;50.046;8.238;2023-09-19T05:14:37;15.71;94.66
66213;SHT31;53015;50.046;8.238;2023-09-19T05:17:03;15.63;95.19
66213;SHT31;53015;50.046;8.238;2023-09-19T05:19:28;15.63;95.04
66213;SHT31;53015;50.046;8.238;2023-09-19T05:21:54;15.61;95.10
66213;SHT31;53015;50.046;8.238;2023-09-19T05:24:19;15.65;94.96
66213;SHT31;53015;50.046;8.238;2023-09-19T05:26:46;15.63;94.75
66213;SHT31;53015;50.046;8.238;2023-09-19T05:29:12;15.64;94.83
66213;SHT31;53015;50.046;8.238;2023-09-19T05:31:37;15.68;94.63
66213;SHT31;53015;50.046;8.238;2023-09-19T05:34:03;15.75;94.48
66213;SHT31;53015;50.046;8.238;2023-09-19T05:36:28;15.71;94.45
66213;SHT31;53015;50.046;8.238;2023-09-19T05:38:54;15.70;94.53
66213;SHT31;53015;50.046;8.238;2023-09-19T05:41:19;15.64;94.61
66213;SHT31;53015;50.046;8.238;2023-09-19T05:43:48;15.65;94.52
66213;SHT31;53015;50.046;8.238;2023-09-19T05:46:14;15.71;94.42
66213;SHT31;53015;50.046;8.238;2023-09-19T05:48:39;15.64;94.39
66213;SHT31;53015;50.046;8.238;2023-09-19T05:51:05;15.72;94.30
66213;SHT31;53015;50.046;8.238;2023-09-19T05:53:30;15.80;93.95
66213;SHT31;53015;50.046;8.238;2023-09-19T05:55:56;15.75;93.94
66213;SHT31;53015;50.046;8.238;2023-09-19T05:58:21;15.72;94.35
66213;SHT31;53015;50.046;8.238;2023-09-19T06:00:48;15.67;94.29
66213;SHT31;53015;50.046;8.238;2023-09-19T06:03:14;15.80;93.89
66213;SHT31;53015;50.046;8.238;2023-09-19T06:05:39;15.64;94.50
66213;SHT31;53015;50.046;8.238;2023-09-19T06:08:05;15.77;94.32
66213;SHT31;53015;50.046;8.238;2023-09-19T06:10:30;15.77;94.13
66213;SHT31;53015;50.046;8.238;2023-09-19T06:12:56;15.88;93.57
66213;SHT31;53015;50.046;8.238;2023-09-19T06:15:21;15.92;93.59
66213;SHT31;53015;50.046;8.238;2023-09-19T06:17:49;15.95;93.51
66213;SHT31;53015;50.046;8.238;2023-09-19T06:20:14;15.91;93.77
66213;SHT31;53015;50.046;8.238;2023-09-19T06:22:41;15.91;93.47
66213;SHT31;53015;50.046;8.238;2023-09-19T06:25:07;15.85;93.74
66213;SHT31;53015;50.046;8.238;2023-09-19T06:27:32;15.82;94.40
66213;SHT31;53015;50.046;8.238;2023-09-19T06:29:58;15.95;93.88
66213;SHT31;53015;50.046;8.238;2023-09-19T06:32:26;16.09;93.68
66213;SHT31;53015;50.046;8.238;2023-09-19T06:34:53;16.15;93.64
66213;SHT31;53015;50.046;8.238;2023-09-19T06:37:19;16.28;92.89
66213;SHT31;53015;50.046;8.238;2023-09-19T06:39:44;16.40;92.87
66213;SHT31;53015;50.046;8.238;2023-09-19T06:42:10;16.49;92.52
66213;SHT31;53015;50.046;8.238;2023-09-19T06:44:35;16.42;92.96
66213;SHT31;53015;50.046;8.238;2023-09-19T06:47:01;16.34;93.47
66213;SHT31;53015;50.046;8.238;2023-09-19T06:49:26;16.46;93.09
66213;SHT31;53015;50.046;8.238;2023-09-19T06:51:55;16.59;94.70
66213;SHT31;53015;50.046;8.238;2023-09-19T06:54:20;16.56;93.96
66213;SHT31;53015;50.046;8.238;2023-09-19T06:56:46;16.63;93.41
66213;SHT31;53015;50.046;8.238;2023-09-19T06:59:11;16.68;91.94
66213;SHT31;53015;50.046;8.238;2023-09-19T07:01:37;16.80;92.04
66213;SHT31;53015;50.046;8.238;2023-09-19T07:04:02;16.75;91.70
66213;SHT31;53015;50.046;8.238;2023-09-19T07:06:28;16.81;91.52
66213;SHT31;53015;50.046;8.238;2023-09-19T07:08:55;16.89;92.48
66213;SHT31;53015;50.046;8.238;2023-09-19T07:11:20;16.85;92.06
66213;SHT31;53015;50.046;8.238;2023-09-19T07:13:46;16.94;90.82
66213;SHT31;53015;50.046;8.238;2023-09-19T07:16:11;16.98;91.19
66213;SHT31;53015;50.046;8.238;2023-09-19T07:18:37;17.25;91.60
66213;SHT31;53015;50.046;8.238;2023-09-19T07:21:02;17.23;91.07
66213;SHT31;53015;50.046;8.238;2023-09-19T07:23:28;17.16;89.39
66213;SHT31;53015;50.046;8.238;2023-09-19T07:25:58;17.32;89.27
66213;SHT31;53015;50.046;8.238;2023-09-19T07:28:23;17.40;89.67
66213;SHT31;53015;50.046;8.238;2023-09-19T07:30:48;17.26;90.53
66213;SHT31;53015;50.046;8.238;2023-09-19T07:33:14;17.32;91.18
66213;SHT31;53015;50.046;8.238;2023-09-19T07:35:39;17.56;91.45
66213;SHT31;53015;50.046;8.238;2023-09-19T07:38:05;17.45;90.28
66213;SHT31;53015;50.046;8.238;2023-09-19T07:40:31;17.60;88.38
66213;SHT31;53015;50.046;8.238;2023-09-19T07:42:58;17.54;88.77
66213;SHT31;53015;50.046;8.238;2023-09-19T07:45:23;17.50;88.32
66213;SHT31;53015;50.046;8.238;2023-09-19T07:47:50;17.43;87.30
66213;SHT31;53015;50.046;8.238;2023-09-19T07:50:16;17.57;87.45
66213;SHT31;53015;50.046;8.238;2023-09-19T07:52:42;17.67;88.67
66213;SHT31;53015;50.046;8.238;2023-09-19T07:55:07;17.65;88.49
66213;SHT31;53015;50.046;8.238;2023-09-19T07:57:33;17.83;87.99
66213;SHT31;53015;50.046;8.238;2023-09-19T08:00:00;17.87;86.68
66213;SHT31;53015;50.046;8.238;2023-09-19T08:02:25;17.76;86.80
66213;SHT31;53015;50.046;8.238;2023-09-19T08:04:50;17.91;87.61
66213;SHT31;53015;50.046;8.238;2023-09-19T08:07:16;17.88;88.37
66213;SHT31;53015;50.046;8.238;2023-09-19T08:09:41;17.97;87.15
66213;SHT31;53015;50.046;8.238;2023-09-19T08:12:07;17.88;85.38
66213;SHT31;53015;50.046;8.238;2023-09-19T08:14:33;17.98;85.61
66213;SHT31;53015;50.046;8.238;2023-09-19T08:17:00;17.98;84.45
66213;SHT31;53015;50.046;8.238;2023-09-19T08:19:26;18.11;84.34
66213;SHT31;53015;50.046;8.238;2023-09-19T08:21:51;18.11;84.19
66213;SHT31;53015;50.046;8.238;2023-09-19T08:24:17;18.09;84.37
66213;SHT31;53015;50.046;8.238;2023-09-19T08:26:42;18.25;82.79
66213;SHT31;53015;50.046;8.238;2023-09-19T08:29:07;18.31;81.52
66213;SHT31;53015;50.046;8.238;2023-09-19T08:31:33;18.41;80.12
66213;SHT31;53015;50.046;8.238;2023-09-19T08:34:00;18.43;80.50
66213;SHT31;53015;50.046;8.238;2023-09-19T08:36:25;18.49;80.02
66213;SHT31;53015;50.046;8.238;2023-09-19T08:38:51;18.56;78.98
66213;SHT31;53015;50.046;8.238;2023-09-19T08:41:17;18.38;80.25
66213;SHT31;53015;50.046;8.238;2023-09-19T08:43:42;18.43;78.75
66213;SHT31;53015;50.046;8.238;2023-09-19T08:46:10;18.38;79.63
66213;SHT31;53015;50.046;8.238;2023-09-19T08:48:39;18.57;78.42
66213;SHT31;53015;50.046;8.238;2023-09-19T08:51:15;18.43;78.20
66213;SHT31;53015;50.046;8.238;2023-09-19T08:53:49;18.66;78.58
66213;SHT31;53015;50.046;8.238;2023-09-19T08:56:17;18.46;76.69
66213;SHT31;53015;50.046;8.238;2023-09-19T08:58:46;18.46;76.70
66213;SHT31;53015;50.046;8.238;2023-09-19T09:01:15;18.42;77.31
66213;SHT31;53015;50.046;8.238;2023-09-19T09:03:42;18.71;76.51
66213;SHT31;53015;50.046;8.238;2023-09-19T09:06:09;18.84;74.29
66213;SHT31;53015;50.046;8.238;2023-09-19T09:08:35;18.91;75.27
66213;SHT31;53015;50.046;8.238;2023-09-19T09:11:01;18.81;73.74
66213;SHT31;53015;50.046;8.238;2023-09-19T09:13:26;18.93;73.64
66213;SHT31;53015;50.046;8.238;2023-09-19T09:15:52;18.96;75.14
66213;SHT31;53015;50.046;8.238;2023-09-19T09:18:17;19.03;74.97
66213;SHT31;53015;50.046;8.238;2023-09-19T09:20:43;19.00;72.09
66213;SHT31;53015;50.046;8.238;2023-09-19T09:23:09;18.93;73.66
66213;SHT31;53015;50.046;8.238;2023-09-19T09:25:48;18.77;73.45
66213;SHT31;53015;50.046;8.238;2023-09-19T09:28:19;18.71;70.87
66213;SHT31;53015;50.046;8.238;2023-09-19T09:30:44;18.71;70.23
66213;SHT31;53015;50.046;8.238;2023-09-19T09:33:10;18.86;71.89
66213;SHT31;53015;50.046;8.238;2023-09-19T09:35:36;18.96;72.13
66213;SHT31;53015;50.046;8.238;2023-09-19T09:38:02;19.00;71.78
66213;SHT31;53015;50.046;8.238;2023-09-19T09:40:45;19.16;72.58
66213;SHT31;53015;50.046;8.238;2023-09-19T09:43:15;19.18;71.63
66213;SHT31;53015;50.046;8.238;2023-09-19T09:46:06;19.19;71.26
66213;SHT31;53015;50.046;8.238;2023-09-19T09:48:31;19.35;71.44
66213;SHT31;53015;50.046;8.238;2023-09-19T09:50:57;19.42;70.71
66213;SHT31;53015;50.046;8.238;2023-09-19T09:53:23;19.46;72.30
66213;SHT31;53015;50.046;8.238;2023-09-19T09:56:03;19.48;72.08
66213;SHT31;53015;50.046;8.238;2023-09-19T09:58:29;19.45;69.34
66213;SHT31;53015;50.046;8.238;2023-09-19T10:00:55;19.46;69.13
66213;SHT31;53015;50.046;8.238;2023-09-19T10:03:21;19.43;68.73
66213;SHT31;53015;50.046;8.238;2023-09-19T10:05:46;19.38;69.31
66213;SHT31;53015;50.046;8.238;2023-09-19T10:08:18;19.41;68.51
66213;SHT31;53015;50.046;8.238;2023-09-19T10:10:43;19.35;68.55
66213;SHT31;53015;50.046;8.238;2023-09-19T10:13:11;19.46;69.77
66213;SHT31;53015;50.046;8.238;2023-09-19T10:15:38;19.63;68.22
66213;SHT31;53015;50.046;8.238;2023-09-19T10:18:05;19.58;68.26
66213;SHT31;53015;50.046;8.238;2023-09-19T10:20:31;19.46;66.46
66213;SHT31;53015;50.046;8.238;2023-09-19T10:22:57;19.35;67.12
66213;SHT31;53015;50.046;8.238;2023-09-19T10:25:25;19.42;67.12
66213;SHT31;53015;50.046;8.238;2023-09-19T10:27:52;19.55;67.26
66213;SHT31;53015;50.046;8.238;2023-09-19T10:30:20;19.59;68.48
66213;SHT31;53015;50.046;8.238;2023-09-19T10:32:48;19.69;66.79
66213;SHT31;53015;50.046;8.238;2023-09-19T10:35:21;19.51;66.13
66213;SHT31;53015;50.046;8.238;2023-09-19T10:37:47;19.72;65.58
66213;SHT31;53015;50.046;8.238;2023-09-19T10:40:14;19.63;65.26
66213;SHT31;53015;50.046;8.238;2023-09-19T10:42:41;19.58;64.89
66213;SHT31;53015;50.046;8.238;2023-09-19T10:45:08;19.67;65.34
66213;SHT31;53015;50.046;8.238;2023-09-19T10:47:35;19.87;65.20
66213;SHT31;53015;50.046;8.238;2023-09-19T10:50:01;19.96;65.95
66213;SHT31;53015;50.046;8.238;2023-09-19T10:52:27;20.14;65.11
66213;SHT31;53015;50.046;8.238;2023-09-19T10:54:55;20.18;62.67
66213;SHT31;53015;50.046;8.238;2023-09-19T10:57:22;20.10;64.82
66213;SHT31;53015;50.046;8.238;2023-09-19T11:00:02;20.01;65.65
66213;SHT31;53015;50.046;8.238;2023-09-19T11:02:27;19.87;65.88
66213;SHT31;53015;50.046;8.238;2023-09-19T11:04:54;19.72;65.45
66213;SHT31;53015;50.046;8.238;2023-09-19T11:07:56;19.55;64.62
66213;SHT31;53015;50.046;8.238;2023-09-19T11:10:46;19.55;65.18
66213;SHT31;53015;50.046;8.238;2023-09-19T11:13:24;19.65;64.27
66213;SHT31;53015;50.046;8.238;2023-09-19T11:16:07;19.81;63.46
66213;SHT31;53015;50.046;8.238;2023-09-19T11:18:51;19.94;62.96
66213;SHT31;53015;50.046;8.238;2023-09-19T11:21:52;19.89;61.87
66213;SHT31;53015;50.046;8.238;2023-09-19T11:24:28;20.08;63.86
66213;SHT31;53015;50.046;8.238;2023-09-19T11:27:09;20.28;64.73
66213;SHT31;53015;50.046;8.238;2023-09-19T11:29:35;20.44;61.78
66213;SHT31;53015;50.046;8.238;2023-09-19T11:32:00;20.52;61.58
66213;SHT31;53015;50.046;8.238;2023-09-19T11:34:43;20.48;63.09
66213;SHT31;53015;50.046;8.238;2023-09-19T11:40:13;20.52;61.56
66213;SHT31;53015;50.046;8.238;2023-09-19T11:42:42;20.41;59.46
66213;SHT31;53015;50.046;8.238;2023-09-19T11:48:12;20.41;61.28
66213;SHT31;53015;50.046;8.238;2023-09-19T11:50:39;20.45;60.91
66213;SHT31;53015;50.046;8.238;2023-09-19T11:53:05;20.41;62.34
66213;SHT31;53015;50.046;8.238;2023-09-19T11:55:32;20.49;60.12
66213;SHT31;53015;50.046;8.238;2023-09-19T11:57:58;20.35;57.85
66213;SHT31;53015;50.046;8.238;2023-09-19T12:00:23;20.44;60.15
66213;SHT31;53015;50.046;8.238;2023-09-19T12:02:51;20.36;60.12
66213;SHT31;53015;50.046;8.238;2023-09-19T12:05:28;20.51;59.30
66213;SHT31;53015;50.046;8.238;2023-09-19T12:07:54;20.55;60.57
66213;SHT31;53015;50.046;8.238;2023-09-19T12:10:19;20.68;61.07
66213;SHT31;53015;50.046;8.238;2023-09-19T12:12:48;20.75;60.13
66213;SHT31;53015;50.046;8.238;2023-09-19T12:15:14;20.73;59.59
66213;SHT31;53015;50.046;8.238;2023-09-19T12:17:40;20.69;59.25
66213;SHT31;53015;50.046;8.238;2023-09-19T12:20:06;20.73;59.79
66213;SHT31;53015;50.046;8.238;2023-09-19T12:22:39;20.75;57.82
66213;SHT31;53015;50.046;8.238;2023-09-19T12:25:06;20.73;60.35
66213;SHT31;53015;50.046;8.238;2023-09-19T12:27:41;20.76;58.74
66213;SHT31;53015;50.046;8.238;2023-09-19T12:30:09;20.84;57.81
66213;SHT31;53015;50.046;8.238;2023-09-19T12:32:35;20.87;57.14
66213;SHT31;53015;50.046;8.238;2023-09-19T12:35:01;20.89;57.40
66213;SHT31;53015;50.046;8.238;2023-09-19T12:37:27;21.03;58.90
66213;SHT31;53015;50.046;8.238;2023-09-19T12:39:53;21.01;57.06
66213;SHT31;53015;50.046;8.238;2023-09-19T12:42:21;21.10;57.35
66213;SHT31;53015;50.046;8.238;2023-09-19T12:44:49;21.17;58.77
66213;SHT31;53015;50.046;8.238;2023-09-19T12:47:17;21.01;57.85
66213;SHT31;53015;50.046;8.238;2023-09-19T12:50:10;21.14;55.85
66213;SHT31;53015;50.046;8.238;2023-09-19T12:52:36;21.17;58.55
66213;SHT31;53015;50.046;8.238;2023-09-19T12:55:02;21.21;59.09
66213;SHT31;53015;50.046;8.238;2023-09-19T12:57:27;21.32;57.70
66213;SHT31;53015;50.046;8.238;2023-09-19T12:59:53;21.34;58.88
66213;SHT31;53015;50.046;8.238;2023-09-19T13:02:20;21.38;57.30
66213;SHT31;53015;50.046;8.238;2023-09-19T13:04:52;21.37;58.25
66213;SHT31;53015;50.046;8.238;2023-09-19T13:07:41;21.51;58.02
66213;SHT31;53015;50.046;8.238;2023-09-19T13:10:07;21.56;59.37
66213;SHT31;53015;50.046;8.238;2023-09-19T13:12:37;21.62;59.75
66213;SHT31;53015;50.046;8.238;2023-09-19T13:15:08;21.69;54.86
66213;SHT31;53015;50.046;8.238;2023-09-19T13:17:44;21.67;56.31
66213;SHT31;53015;50.046;8.238;2023-09-19T13:20:21;21.79;56.61
66213;SHT31;53015;50.046;8.238;2023-09-19T13:22:47;21.96;56.84
66213;SHT31;53015;50.046;8.238;2023-09-19T13:25:14;22.16;55.78
66213;SHT31;53015;50.046;8.238;2023-09-19T13:27:41;22.20;56.68
66213;SHT31;53015;50.046;8.238;2023-09-19T13:30:07;22.16;55.96
66213;SHT31;53015;50.046;8.238;2023-09-19T13:32:33;22.02;56.35
66213;SHT31;53015;50.046;8.238;2023-09-19T13:35:00;21.88;54.91
66213;SHT31;53015;50.046;8.238;2023-09-19T13:37:26;21.79;57.26
66213;SHT31;53015;50.046;8.238;2023-09-19T13:39:51;21.81;55.71
66213;SHT31;53015;50.046;8.238;2023-09-19T13:42:17;21.67;56.48
66213;SHT31;53015;50.046;8.238;2023-09-19T13:44:42;21.65;56.26
66213;SHT31;53015;50.046;8.238;2023-09-19T13:47:07;21.54;57.32
66213;SHT31;53015;50.046;8.238;2023-09-19T13:49:33;21.62;55.63
66213;SHT31;53015;50.046;8.238;2023-09-19T13:52:00;21.76;57.95
66213;SHT31;53015;50.046;8.238;2023-09-19T13:54:25;21.79;56.93
66213;SHT31;53015;50.046;8.238;2023-09-19T13:56:51;21.85;54.31
66213;SHT31;53015;50.046;8.238;2023-09-19T13:59:17;21.82;54.41
66213;SHT31;53015;50.046;8.238;2023-09-19T14:01:42;21.81;55.33
66213;SHT31;53015;50.046;8.238;2023-09-19T14:04:07;21.88;54.71
66213;SHT31;53015;50.046;8.238;2023-09-19T14:06:33;21.93;55.55
66213;SHT31;53015;50.046;8.238;2023-09-19T14:09:00;21.85;56.62
66213;SHT31;53015;50.046;8.238;2023-09-19T14:11:25;21.93;55.43
66213;SHT31;53015;50.046;8.238;2023-09-19T14:13:51;21.85;54.78
66213;SHT31;53015;50.046;8.238;2023-09-19T14:16:16;21.88;56.00
66213;SHT31;53015;50.046;8.238;2023-09-19T14:18:42;21.88;56.95
66213;SHT31;53015;50.046;8.238;2023-09-19T14:21:07;21.94;56.59
66213;SHT31;53015;50.046;8.238;2023-09-19T14:23:35;21.96;55.93
66213;SHT31;53015;50.046;8.238;2023-09-19T14:26:02;21.99;55.84
66213;SHT31;53015;50.046;8.238;2023-09-19T14:28:27;21.96;57.29
66213;SHT31;53015;50.046;8.238;2023-09-19T14:30:53;21.92;57.33
66213;SHT31;53015;50.046;8.238;2023-09-19T14:33:18;21.92;55.72
66213;SHT31;53015;50.046;8.238;2023-09-19T14:35:44;21.90;55.94
66213;SHT31;53015;50.046;8.238;2023-09-19T14:38:09;21.86;55.88
66213;SHT31;53015;50.046;8.238;2023-09-19T14:40:35;21.88;54.69
66213;SHT31;53015;50.046;8.238;2023-09-19T14:43:02;21.78;58.46
66213;SHT31;53015;50.046;8.238;2023-09-19T14:45:27;21.76;57.94
66213;SHT31;53015;50.046;8.238;2023-09-19T14:47:53;21.83;57.33
66213;SHT31;53015;50.046;8.238;2023-09-19T14:50:18;21.83;57.98
66213;SHT31;53015;50.046;8.238;2023-09-19T14:52:43;21.93;56.22
66213;SHT31;53015;50.046;8.238;2023-09-19T14:55:09;21.99;57.13
66213;SHT31;53015;50.046;8.238;2023-09-19T14:57:34;21.97;56.14
66213;SHT31;53015;50.046;8.238;2023-09-19T15:00:01;22.06;56.50
66213;SHT31;53015;50.046;8.238;2023-09-19T15:02:27;22.16;55.43
66213;SHT31;53015;50.046;8.238;2023-09-19T15:04:52;22.14;56.02
66213;SHT31;53015;50.046;8.238;2023-09-19T15:07:18;22.07;57.53
66213;SHT31;53015;50.046;8.238;2023-09-19T15:09:43;22.06;58.23
66213;SHT31;53015;50.046;8.238;2023-09-19T15:12:09;22.13;56.25
66213;SHT31;53015;50.046;8.238;2023-09-19T15:14:35;22.18;57.42
66213;SHT31;53015;50.046;8.238;2023-09-19T15:17:02;22.11;57.30
66213;SHT31;53015;50.046;8.238;2023-09-19T15:19:27;22.09;57.38
66213;SHT31;53015;50.046;8.238;2023-09-19T15:21:53;22.00;57.94
66213;SHT31;53015;50.046;8.238;2023-09-19T15:24:18;22.07;57.52
66213;SHT31;53015;50.046;8.238;2023-09-19T15:26:44;22.03;56.34
66213;SHT31;53015;50.046;8.238;2023-09-19T15:29:09;22.07;56.41
66213;SHT31;53015;50.046;8.238;2023-09-19T15:31:35;21.97;57.39
66213;SHT31;53015;50.046;8.238;2023-09-19T15:34:02;21.92;57.79
66213;SHT31;53015;50.046;8.238;2023-09-19T15:36:28;21.97;57.49